SWA1528 KMKE-KLAS
Flight info
| Callsign | SWA1528 |
|---|---|
| Flight time | N/A |
| Altitude | 36000 |
| Route | GREAS JAYEX JORDY KP69E DRABS MCK QUAIL DEANN TYEGR CHOWW4 |
| Aircraft | B737/M-SADE2E3GIJ4RWZ/LB1D1 |
Departure
| Time | 2026-04-10 11:19 |
|---|---|
| Airport | General Mitchell International Airport (KMKE) |
Arrival
| Time | N/A |
|---|---|
| Airport | Harry Reid International Airport (KLAS) |
| Time | Latitude | Longitude | Altitude | Speed | Heading |
|---|---|---|---|---|---|
| 2026-04-10 10:51 | 42.95124 | -87.90068 | 687 ft | 0 kts | 195° |
| 2026-04-10 11:01 | 42.95138 | -87.90063 | 680 ft | 4 kts | 191° |
| 2026-04-10 11:01 | 42.95164 | -87.90058 | 680 ft | 4 kts | 188° |
| 2026-04-10 11:02 | 42.95189 | -87.90053 | 680 ft | 4 kts | 172° |
| 2026-04-10 11:02 | 42.95211 | -87.90067 | 679 ft | 4 kts | 122° |
| 2026-04-10 11:02 | 42.95215 | -87.90079 | 679 ft | 1 kts | 114° |
| 2026-04-10 11:06 | 42.95205 | -87.90050 | 680 ft | 6 kts | 121° |
| 2026-04-10 11:06 | 42.95179 | -87.90006 | 683 ft | 6 kts | 130° |
| 2026-04-10 11:07 | 42.95173 | -87.89996 | 686 ft | 0 kts | 130° |
| 2026-04-10 11:07 | 42.95169 | -87.89991 | 686 ft | 3 kts | 131° |
| 2026-04-10 11:07 | 42.95148 | -87.89958 | 683 ft | 5 kts | 132° |
| 2026-04-10 11:08 | 42.95118 | -87.89913 | 687 ft | 8 kts | 131° |
| 2026-04-10 11:08 | 42.95072 | -87.89846 | 687 ft | 11 kts | 138° |
| 2026-04-10 11:08 | 42.95006 | -87.89795 | 685 ft | 11 kts | 148° |
| 2026-04-10 11:08 | 42.94956 | -87.89730 | 687 ft | 2 kts | 145° |
| 2026-04-10 11:09 | 42.94955 | -87.89729 | 687 ft | 0 kts | 145° |
| 2026-04-10 11:13 | 42.94884 | -87.89703 | 686 ft | 25 kts | 181° |
| 2026-04-10 11:13 | 42.94717 | -87.89729 | 684 ft | 23 kts | 187° |
| 2026-04-10 11:14 | 42.94579 | -87.89815 | 681 ft | 22 kts | 237° |
| 2026-04-10 11:14 | 42.94514 | -87.89959 | 683 ft | 16 kts | 214° |
| 2026-04-10 11:14 | 42.94409 | -87.89952 | 685 ft | 15 kts | 172° |
| 2026-04-10 11:14 | 42.94307 | -87.89926 | 685 ft | 15 kts | 169° |
| 2026-04-10 11:15 | 42.94210 | -87.89903 | 685 ft | 14 kts | 169° |
| 2026-04-10 11:15 | 42.94111 | -87.89883 | 684 ft | 16 kts | 180° |
| 2026-04-10 11:15 | 42.93978 | -87.89887 | 687 ft | 21 kts | 182° |
| 2026-04-10 11:15 | 42.93837 | -87.89911 | 683 ft | 20 kts | 177° |
| 2026-04-10 11:16 | 42.93702 | -87.89889 | 685 ft | 19 kts | 181° |
| 2026-04-10 11:16 | 42.93569 | -87.89897 | 685 ft | 19 kts | 181° |
| 2026-04-10 11:16 | 42.93440 | -87.89900 | 684 ft | 18 kts | 185° |
| 2026-04-10 11:16 | 42.93316 | -87.89909 | 683 ft | 18 kts | 186° |
| 2026-04-10 11:17 | 42.93202 | -87.89928 | 684 ft | 14 kts | 187° |
| 2026-04-10 11:17 | 42.93136 | -87.89941 | 684 ft | 9 kts | 188° |
| 2026-04-10 11:17 | 42.93078 | -87.89916 | 686 ft | 9 kts | 124° |
| 2026-04-10 11:17 | 42.93067 | -87.89831 | 687 ft | 9 kts | 97° |
| 2026-04-10 11:18 | 42.93088 | -87.89762 | 681 ft | 9 kts | 14° |
| 2026-04-10 11:18 | 42.93172 | -87.89749 | 683 ft | 22 kts | 7° |
| 2026-04-10 11:18 | 42.93577 | -87.89681 | 685 ft | 96 kts | 7° |
| 2026-04-10 11:18 | 42.94466 | -87.89532 | 688 ft | 159 kts | 6° |
| 2026-04-10 11:19 | 42.95657 | -87.89393 | 1203 ft | 179 kts | 4° |
| 2026-04-10 11:19 | 42.96967 | -87.89225 | 1842 ft | 197 kts | 8° |
| 2026-04-10 11:19 | 42.98327 | -87.89132 | 2745 ft | 197 kts | 352° |
| 2026-04-10 11:19 | 42.99625 | -87.89884 | 3297 ft | 213 kts | 321° |
| 2026-04-10 11:20 | 43.00604 | -87.91413 | 4050 ft | 217 kts | 301° |
| 2026-04-10 11:20 | 43.01274 | -87.93372 | 4487 ft | 240 kts | 291° |
| 2026-04-10 11:20 | 43.01867 | -87.95575 | 5200 ft | 248 kts | 281° |
| 2026-04-10 11:20 | 43.01899 | -87.97865 | 6400 ft | 244 kts | 260° |
| 2026-04-10 11:21 | 43.01551 | -88.00159 | 7287 ft | 248 kts | 258° |
| 2026-04-10 11:21 | 43.01184 | -88.02473 | 8220 ft | 250 kts | 258° |
| 2026-04-10 11:21 | 43.00827 | -88.04802 | 9183 ft | 251 kts | 259° |
| 2026-04-10 11:21 | 43.00482 | -88.07138 | 10136 ft | 252 kts | 260° |
| 2026-04-10 11:22 | 43.00139 | -88.09546 | 10657 ft | 269 kts | 260° |
| 2026-04-10 11:22 | 42.99775 | -88.12176 | 10852 ft | 295 kts | 261° |
| 2026-04-10 11:22 | 42.99384 | -88.15053 | 11025 ft | 320 kts | 261° |
| 2026-04-10 11:22 | 42.98969 | -88.18139 | 11428 ft | 336 kts | 261° |
| 2026-04-10 11:23 | 42.98546 | -88.21301 | 12164 ft | 340 kts | 261° |
| 2026-04-10 11:23 | 42.98121 | -88.24489 | 13030 ft | 342 kts | 261° |
| 2026-04-10 11:23 | 42.97693 | -88.27694 | 13836 ft | 345 kts | 261° |
| 2026-04-10 11:23 | 42.97262 | -88.30929 | 14541 ft | 348 kts | 261° |
| 2026-04-10 11:24 | 42.96827 | -88.34194 | 15247 ft | 351 kts | 261° |
| 2026-04-10 11:24 | 42.96387 | -88.37483 | 15956 ft | 354 kts | 261° |
| 2026-04-10 11:24 | 42.95949 | -88.40754 | 16643 ft | 356 kts | 261° |
| 2026-04-10 11:24 | 42.95502 | -88.44095 | 17331 ft | 359 kts | 260° |
| 2026-04-10 11:25 | 42.95048 | -88.47467 | 18011 ft | 362 kts | 261° |
| 2026-04-10 11:25 | 42.94591 | -88.50851 | 18659 ft | 364 kts | 261° |
| 2026-04-10 11:25 | 42.94196 | -88.54274 | 19249 ft | 366 kts | 265° |
| 2026-04-10 11:25 | 42.94145 | -88.57746 | 19855 ft | 368 kts | 272° |
| 2026-04-10 11:26 | 42.94262 | -88.61241 | 20446 ft | 369 kts | 272° |
| 2026-04-10 11:26 | 42.94386 | -88.64762 | 21015 ft | 372 kts | 272° |
| 2026-04-10 11:26 | 42.94508 | -88.68301 | 21588 ft | 374 kts | 272° |
| 2026-04-10 11:26 | 42.94627 | -88.71862 | 22139 ft | 376 kts | 272° |
| 2026-04-10 11:27 | 42.94742 | -88.75444 | 22697 ft | 378 kts | 272° |
| 2026-04-10 11:27 | 42.94854 | -88.79045 | 23221 ft | 380 kts | 272° |
| 2026-04-10 11:27 | 42.94963 | -88.82618 | 23732 ft | 383 kts | 272° |
| 2026-04-10 11:27 | 42.95072 | -88.86256 | 24153 ft | 385 kts | 272° |
| 2026-04-10 11:28 | 42.95179 | -88.89911 | 24567 ft | 387 kts | 272° |
| 2026-04-10 11:28 | 42.95286 | -88.93598 | 24963 ft | 389 kts | 272° |
| 2026-04-10 11:28 | 42.95392 | -88.97300 | 25352 ft | 392 kts | 272° |
| 2026-04-10 11:28 | 42.95498 | -89.01032 | 25733 ft | 394 kts | 272° |
| 2026-04-10 11:29 | 42.95603 | -89.04776 | 26101 ft | 396 kts | 272° |
| 2026-04-10 11:29 | 42.95707 | -89.08542 | 26468 ft | 398 kts | 272° |
| 2026-04-10 11:29 | 42.95811 | -89.12332 | 26824 ft | 400 kts | 271° |
| 2026-04-10 11:29 | 42.95914 | -89.16142 | 27178 ft | 402 kts | 271° |
| 2026-04-10 11:30 | 42.96016 | -89.19962 | 27526 ft | 404 kts | 271° |
| 2026-04-10 11:30 | 42.96118 | -89.23810 | 27856 ft | 406 kts | 272° |
| 2026-04-10 11:30 | 42.96218 | -89.27679 | 28163 ft | 408 kts | 272° |
| 2026-04-10 11:30 | 42.96318 | -89.31564 | 28579 ft | 408 kts | 272° |
| 2026-04-10 11:31 | 42.96416 | -89.35424 | 29103 ft | 406 kts | 272° |
| 2026-04-10 11:31 | 42.96511 | -89.39230 | 29600 ft | 404 kts | 271° |
| 2026-04-10 11:31 | 42.96605 | -89.43047 | 30050 ft | 403 kts | 271° |
| 2026-04-10 11:31 | 42.96698 | -89.46865 | 30473 ft | 402 kts | 271° |
| 2026-04-10 11:32 | 42.96789 | -89.50667 | 30918 ft | 399 kts | 271° |
| 2026-04-10 11:32 | 42.96878 | -89.54439 | 31419 ft | 395 kts | 271° |
| 2026-04-10 11:32 | 42.96965 | -89.58175 | 31902 ft | 392 kts | 270° |
| 2026-04-10 11:32 | 42.97051 | -89.61894 | 32321 ft | 390 kts | 270° |